createdAt,value
2023-03-25T00:01:52.232Z,23.37
2023-03-25T00:06:02.312Z,20.43
2023-03-25T00:10:15.072Z,20.67
2023-03-25T00:14:26.450Z,24.47
2023-03-25T00:18:35.905Z,19.00
2023-03-25T00:22:45.412Z,20.60
2023-03-25T00:26:56.394Z,19.93
2023-03-25T00:31:07.903Z,21.93
2023-03-25T00:35:18.123Z,17.90
2023-03-25T00:39:27.439Z,16.43
2023-03-25T00:43:38.332Z,13.50
2023-03-25T00:47:47.473Z,14.17
2023-03-25T00:51:57.602Z,18.03
2023-03-25T00:56:07.732Z,19.23
2023-03-25T01:00:20.208Z,17.27
2023-03-25T01:04:30.064Z,14.33
2023-03-25T01:08:39.816Z,17.27
2023-03-25T01:12:49.610Z,16.10
2023-03-25T01:17:01.609Z,22.90
2023-03-25T01:21:10.976Z,20.83
2023-03-25T01:25:20.419Z,24.77
2023-03-25T01:29:29.756Z,20.27
2023-03-25T01:33:41.598Z,21.90
2023-03-25T01:37:50.726Z,24.13
2023-03-25T01:41:59.964Z,17.63
2023-03-25T01:46:16.916Z,21.60
2023-03-25T01:50:30.439Z,21.33
2023-03-25T01:54:40.711Z,23.07
2023-03-25T01:58:52.210Z,18.87
2023-03-25T02:03:04.041Z,23.43
2023-03-25T02:07:22.587Z,21.03
2023-03-25T02:11:35.106Z,24.40
2023-03-25T02:16:09.080Z,21.07
2023-03-25T02:20:42.396Z,24.80
2023-03-25T02:25:23.237Z,22.93
2023-03-25T02:29:59.480Z,24.37
2023-03-25T02:34:31.841Z,21.27
2023-03-25T02:38:49.793Z,14.90
2023-03-25T02:43:03.650Z,16.53
2023-03-25T02:47:19.682Z,16.13
2023-03-25T02:51:33.046Z,14.47
2023-03-25T02:55:50.488Z,20.10
2023-03-25T03:00:01.337Z,18.93
2023-03-25T03:04:10.759Z,18.87
2023-03-25T03:08:36.027Z,16.00
2023-03-25T03:13:00.680Z,23.43
2023-03-25T03:17:18.816Z,20.93
2023-03-25T03:21:38.657Z,22.80
2023-03-25T03:25:53.269Z,20.23
2023-03-25T03:30:13.554Z,16.77
2023-03-25T03:34:32.914Z,21.33
2023-03-25T03:38:47.188Z,27.03
2023-03-25T03:42:59.855Z,19.73
2023-03-25T03:47:16.222Z,22.80
2023-03-25T03:51:29.830Z,20.97
2023-03-25T03:55:43.266Z,22.33
2023-03-25T03:59:59.616Z,20.20
2023-03-25T04:04:12.732Z,26.63
2023-03-25T04:08:29.484Z,19.23
2023-03-25T04:12:42.710Z,12.50
2023-03-25T04:16:53.510Z,17.50
2023-03-25T04:21:04.604Z,16.67
2023-03-25T04:25:16.339Z,16.30
2023-03-25T04:29:26.035Z,17.40
2023-03-25T04:33:36.277Z,24.97
2023-03-25T04:37:49.313Z,21.83
2023-03-25T04:41:58.613Z,21.07
2023-03-25T04:46:08.394Z,22.10
2023-03-25T04:50:22.464Z,17.47
2023-03-25T04:54:33.541Z,22.73
2023-03-25T04:58:43.204Z,18.43
2023-03-25T05:02:54.445Z,14.43
2023-03-25T05:07:04.062Z,16.73
2023-03-25T05:11:15.475Z,16.20
2023-03-25T05:15:25.495Z,20.43
2023-03-25T05:19:35.566Z,23.63
2023-03-25T05:23:44.999Z,21.83
2023-03-25T05:27:55.877Z,24.33
2023-03-25T05:32:05.138Z,26.50
2023-03-25T05:36:16.836Z,28.17
2023-03-25T05:40:26.729Z,23.73
2023-03-25T05:44:39.086Z,22.93
2023-03-25T05:48:48.823Z,27.57
2023-03-25T05:53:01.163Z,31.00
2023-03-25T05:57:10.730Z,25.17
2023-03-25T06:01:32.670Z,22.10
2023-03-25T06:05:43.319Z,25.10
2023-03-25T06:09:54.688Z,25.00
2023-03-25T06:14:03.962Z,20.67
2023-03-25T06:18:15.062Z,21.20
2023-03-25T06:22:24.393Z,24.87
2023-03-25T06:26:33.884Z,16.73
2023-03-25T06:30:44.129Z,18.00
2023-03-25T06:34:55.008Z,25.80
2023-03-25T06:39:05.488Z,30.03
2023-03-25T06:43:15.035Z,35.20
2023-03-25T06:47:24.823Z,23.20
2023-03-25T06:51:35.672Z,25.70
2023-03-25T06:55:46.428Z,31.37
2023-03-25T06:59:55.789Z,28.13
2023-03-25T07:04:05.167Z,25.63
2023-03-25T07:08:16.320Z,22.67
2023-03-25T07:12:26.217Z,27.50
2023-03-25T07:16:36.988Z,27.53
2023-03-25T07:20:46.796Z,32.27
2023-03-25T07:24:58.771Z,27.67
2023-03-25T07:29:08.124Z,23.30
2023-03-25T07:33:17.699Z,27.27
2023-03-25T07:37:26.958Z,27.63
2023-03-25T07:41:37.828Z,31.73
2023-03-25T07:45:47.512Z,26.97
2023-03-25T07:49:58.407Z,30.53
2023-03-25T07:54:08.837Z,22.67
2023-03-25T08:02:54.323Z,28.00
2023-03-25T08:07:05.990Z,23.03
2023-03-25T08:11:33.202Z,25.13
2023-03-25T08:15:45.907Z,33.80
2023-03-25T08:19:55.607Z,27.03
2023-03-25T08:24:05.200Z,30.43
2023-03-25T08:28:18.253Z,29.07
2023-03-25T08:32:30.732Z,25.13
2023-03-25T08:36:40.870Z,28.13
2023-03-25T08:40:50.921Z,24.83
2023-03-25T08:45:00.127Z,29.30
2023-03-25T08:49:11.134Z,26.57
2023-03-25T08:53:21.324Z,28.03
2023-03-25T08:57:31.668Z,30.27
2023-03-25T09:01:42.692Z,28.03
2023-03-25T09:05:54.282Z,19.90
2023-03-25T09:10:04.397Z,28.13
2023-03-25T09:14:14.232Z,26.83
2023-03-25T09:18:28.520Z,29.40
2023-03-25T09:22:39.726Z,31.37
2023-03-25T09:26:49.198Z,27.23
2023-03-25T09:30:59.105Z,28.43
2023-03-25T09:35:10.891Z,30.67
2023-03-25T09:39:24.087Z,23.80
2023-03-25T09:43:42.092Z,25.17
2023-03-25T09:47:59.398Z,28.17
2023-03-25T09:52:19.700Z,23.83
2023-03-25T09:56:34.399Z,28.27
2023-03-25T10:00:45.909Z,27.63
2023-03-25T10:05:19.916Z,29.13
2023-03-25T10:09:41.162Z,32.30
2023-03-25T10:13:57.392Z,26.90
2023-03-25T10:18:19.945Z,25.27
2023-03-25T10:22:33.209Z,23.40
2023-03-25T10:26:49.342Z,26.53
2023-03-25T10:31:00.707Z,28.87
2023-03-25T10:35:17.465Z,29.83
2023-03-25T10:39:34.469Z,26.40
2023-03-25T10:43:45.052Z,26.67
2023-03-25T10:48:03.488Z,25.10
2023-03-25T10:52:13.694Z,22.03
2023-03-25T10:56:27.539Z,23.80
2023-03-25T11:00:37.195Z,23.00
2023-03-25T11:09:18.877Z,19.70
2023-03-25T11:13:30.117Z,20.73
2023-03-25T11:17:45.713Z,24.47
2023-03-25T11:22:02.717Z,29.87
2023-03-25T11:26:27.592Z,27.07
2023-03-25T11:30:37.023Z,25.60
2023-03-25T11:34:50.006Z,22.67
2023-03-25T11:39:02.777Z,26.63
2023-03-25T11:43:13.856Z,27.27
2023-03-25T11:47:27.268Z,27.93
2023-03-25T11:51:37.666Z,20.80
2023-03-25T11:55:50.407Z,24.23
2023-03-25T12:00:13.320Z,24.20
2023-03-25T12:04:25.421Z,26.40
2023-03-25T12:09:04.098Z,20.80
2023-03-25T12:13:27.549Z,26.20
2023-03-25T12:17:55.189Z,22.13
2023-03-25T12:22:20.171Z,27.07
2023-03-25T12:26:42.429Z,22.67
2023-03-25T12:31:02.971Z,25.97
2023-03-25T12:35:28.714Z,21.03
2023-03-25T12:39:55.222Z,22.20
2023-03-25T12:44:12.834Z,24.77
2023-03-25T12:48:47.331Z,23.73
2023-03-25T12:53:06.174Z,19.53
2023-03-25T12:57:30.526Z,22.67
2023-03-25T13:02:02.304Z,23.37
2023-03-25T13:06:22.049Z,24.63
2023-03-25T13:11:20.329Z,23.40
2023-03-25T13:15:43.092Z,20.87
2023-03-25T13:19:54.487Z,19.13
2023-03-25T13:25:11.993Z,21.53
2023-03-25T13:34:23.300Z,22.97
2023-03-25T13:38:41.763Z,25.27
2023-03-25T13:43:00.932Z,27.63
2023-03-25T13:47:35.749Z,26.67
2023-03-25T13:52:01.473Z,21.60
2023-03-25T13:56:45.628Z,21.83
2023-03-25T14:01:34.512Z,23.13
2023-03-25T14:06:24.417Z,26.70
2023-03-25T14:11:13.435Z,27.73
2023-03-25T14:15:25.540Z,21.90
2023-03-25T14:19:38.952Z,21.67
2023-03-25T14:23:48.957Z,26.60
2023-03-25T14:27:59.841Z,27.00
2023-03-25T14:32:32.682Z,22.97
2023-03-25T14:37:16.073Z,18.30
2023-03-25T14:42:07.554Z,18.83
2023-03-25T14:46:24.090Z,21.60
2023-03-25T14:50:36.105Z,20.30
2023-03-25T14:54:46.046Z,24.23
2023-03-25T14:58:58.791Z,24.20
2023-03-25T15:03:14.169Z,19.87
2023-03-25T15:07:43.260Z,22.33
2023-03-25T15:11:59.921Z,26.13
2023-03-25T15:16:20.448Z,21.27
2023-03-25T16:00:12.974Z,23.63
2023-03-25T16:05:16.896Z,31.53
2023-03-25T16:09:49.412Z,25.23
2023-03-25T16:24:36.755Z,26.33
2023-03-25T16:28:46.826Z,23.83
2023-03-25T16:33:05.659Z,28.13
2023-03-25T16:37:16.816Z,26.00
2023-03-25T16:41:29.489Z,22.70
2023-03-25T16:45:43.978Z,28.53
2023-03-25T16:50:28.762Z,24.20
2023-03-25T16:59:59.490Z,22.07
2023-03-25T17:09:01.039Z,23.90
2023-03-25T17:13:13.601Z,22.93
2023-03-25T17:17:38.877Z,20.13
2023-03-25T17:22:05.108Z,22.80
2023-03-25T17:26:24.540Z,23.07
2023-03-25T17:30:43.555Z,14.07
2023-03-25T17:35:10.845Z,10.63
2023-03-25T17:39:32.506Z,13.13
2023-03-25T17:43:48.472Z,14.00
2023-03-25T17:47:57.939Z,11.13
2023-03-25T17:52:11.794Z,10.60
2023-03-25T17:56:25.506Z,12.10
2023-03-25T18:00:35.997Z,12.63
2023-03-25T18:04:45.414Z,13.33
2023-03-25T18:08:56.101Z,13.40
2023-03-25T18:13:06.910Z,12.20
2023-03-25T18:27:00.689Z,12.23
2023-03-25T18:31:29.999Z,12.83
2023-03-25T18:35:41.051Z,9.53
2023-03-25T18:39:51.092Z,15.73
2023-03-25T18:44:02.495Z,11.53
2023-03-25T18:48:21.247Z,11.13
2023-03-25T18:52:31.037Z,12.90
2023-03-25T19:11:08.021Z,11.33
2023-03-25T19:15:47.280Z,13.37
2023-03-25T19:20:02.172Z,10.10
2023-03-25T19:33:24.371Z,11.27
2023-03-25T19:37:36.836Z,11.17
2023-03-25T19:41:48.123Z,14.33
2023-03-25T19:46:11.224Z,8.67
2023-03-25T19:50:24.314Z,9.97
2023-03-25T19:54:38.594Z,10.17
2023-03-25T19:59:07.273Z,12.10
2023-03-25T20:03:35.476Z,8.40
2023-03-25T20:08:01.922Z,8.97
2023-03-25T20:12:22.698Z,5.87
2023-03-25T20:16:36.232Z,6.93
2023-03-25T20:20:48.710Z,8.47
2023-03-25T20:25:03.357Z,7.50
